Time;durP1;ratioP1;P1;durP2;ratioP2;P2;SDS_P1;SDS_P2;PMS_P1;PMS_P2;Temp;Humidity;BMP_temperature;BMP_pressure;BME280_temperature;BME280_humidity;BME280_pressure;Samples;Min_cycle;Max_cycle;Signal;HPM_P1;HPM_P2
2022/07/19 00:00:35;;;;;;;10.07;5.15;;;;;;;22.56;60.62;101131.66;4992393;28;20512;-77
2022/07/19 00:03:01;;;;;;;12.68;5.07;;;;;;;22.52;61.13;101117.16;4992772;28;20132;-77
2022/07/19 00:05:28;;;;;;;10.18;5.22;;;;;;;22.58;60.84;101128.78;4992264;28;20700;-76
2022/07/19 00:07:55;;;;;;;9.05;5.35;;;;;;;22.47;61.67;101125.00;4992108;28;20495;-77
2022/07/19 00:10:21;;;;;;;11.05;5.00;;;;;;;22.32;61.77;101127.22;4992220;28;20602;-77
2022/07/19 00:12:48;;;;;;;10.82;5.07;;;;;;;22.29;61.47;101130.31;4993257;28;20149;-78
2022/07/19 00:15:17;;;;;;;13.68;5.45;;;;;;;22.14;61.68;101130.69;4994384;28;20054;-78
2022/07/19 00:17:47;;;;;;;11.38;5.20;;;;;;;22.14;61.80;101126.19;4995407;28;20085;-78
2022/07/19 00:20:16;;;;;;;10.48;5.35;;;;;;;22.12;61.51;101128.25;4995856;28;20057;-78
2022/07/19 00:22:43;;;;;;;7.97;5.05;;;;;;;22.06;61.64;101123.78;4995119;28;20073;-77
2022/07/19 00:25:10;;;;;;;10.30;5.45;;;;;;;21.97;61.95;101119.75;4993216;28;20154;-77
2022/07/19 00:27:40;;;;;;;11.88;5.38;;;;;;;21.99;61.86;101123.00;4994805;28;20050;-78
2022/07/19 00:30:09;;;;;;;13.27;5.20;;;;;;;22.07;62.40;101128.09;4993895;28;20046;-78
2022/07/19 00:32:35;;;;;;;7.57;5.20;;;;;;;21.98;62.00;101118.69;4992483;28;20064;-77
2022/07/19 00:35:04;;;;;;;11.25;5.82;;;;;;;21.93;62.66;101121.22;4991671;28;20093;-77
2022/07/19 00:37:31;;;;;;;9.60;5.40;;;;;;;21.81;63.24;101110.44;4992455;28;20426;-78
2022/07/19 00:39:57;;;;;;;15.82;5.78;;;;;;;21.74;63.65;101116.88;4991589;28;20133;-77
2022/07/19 00:42:24;;;;;;;9.88;5.55;;;;;;;21.74;63.31;101114.22;4992027;28;20495;-77
2022/07/19 00:44:51;;;;;;;8.10;5.50;;;;;;;21.62;63.89;101116.75;4992254;28;20133;-77
2022/07/19 00:47:18;;;;;;;10.75;5.35;;;;;;;21.59;64.04;101116.38;4991478;28;20085;-77
2022/07/19 00:49:44;;;;;;;12.95;5.28;;;;;;;21.58;64.18;101115.56;4991186;28;20420;-77
2022/07/19 00:52:14;;;;;;;8.38;5.65;;;;;;;21.57;64.19;101113.13;4992012;28;20529;-77
2022/07/19 00:54:43;;;;;;;15.20;5.10;;;;;;;21.55;64.59;101125.84;4992135;28;20474;-77
2022/07/19 00:57:11;;;;;;;12.68;5.70;;;;;;;21.55;65.16;101117.84;4991558;28;20156;-78
2022/07/19 00:59:37;;;;;;;12.65;5.20;;;;;;;21.44;65.16;101125.50;4991524;28;20571;-78
2022/07/19 01:02:04;;;;;;;12.13;5.85;;;;;;;21.42;64.99;101119.56;4993848;28;20569;-78
2022/07/19 01:04:34;;;;;;;10.48;5.35;;;;;;;21.35;65.67;101121.44;4993662;28;20086;-77
2022/07/19 01:07:00;;;;;;;10.05;5.55;;;;;;;21.29;65.69;101116.16;4994067;28;20082;-78
2022/07/19 01:09:28;;;;;;;10.15;5.32;;;;;;;21.26;65.85;101116.63;4994126;28;20054;-78
2022/07/19 01:11:56;;;;;;;12.48;5.30;;;;;;;21.29;65.78;101114.31;4992994;28;20047;-79
2022/07/19 01:14:23;;;;;;;12.23;5.53;;;;;;;21.28;65.90;101120.66;4992530;28;20479;-78
2022/07/19 01:16:49;;;;;;;12.95;5.70;;;;;;;21.30;65.54;101107.97;4992153;28;20057;-78
2022/07/19 01:19:17;;;;;;;7.30;5.20;;;;;;;21.26;65.45;101106.78;4995154;28;20054;-79
2022/07/19 01:21:45;;;;;;;10.80;5.50;;;;;;;21.27;65.42;101102.28;4994896;28;20050;-79
2022/07/19 01:24:11;;;;;;;7.43;5.40;;;;;;;21.25;65.13;101099.03;4994750;28;20109;-79
2022/07/19 01:26:38;;;;;;;11.88;5.25;;;;;;;21.26;65.19;101112.13;4994408;28;20519;-79
2022/07/19 01:29:05;;;;;;;7.95;5.10;;;;;;;21.24;65.42;101102.72;4995044;28;20077;-79
2022/07/19 01:31:32;;;;;;;9.20;5.13;;;;;;;21.16;65.16;101101.91;4994354;28;20047;-79
2022/07/19 01:33:58;;;;;;;13.60;5.75;;;;;;;21.20;65.23;101102.28;4991090;28;20097;-78
2022/07/19 01:36:25;;;;;;;10.25;5.25;;;;;;;21.12;65.67;101097.22;4992364;28;20055;-78
2022/07/19 01:38:53;;;;;;;7.45;5.10;;;;;;;21.05;65.84;101104.41;4991615;28;20054;-77
2022/07/19 01:41:20;;;;;;;10.55;5.30;;;;;;;21.01;66.33;101103.22;4991144;28;20125;-77
2022/07/19 01:43:46;;;;;;;8.63;5.57;;;;;;;21.00;66.72;101101.59;4991498;28;20081;-78
2022/07/19 01:46:13;;;;;;;10.43;5.43;;;;;;;20.94;66.95;101100.59;4991418;28;20594;-77
2022/07/19 01:48:40;;;;;;;8.43;5.68;;;;;;;20.78;67.56;101091.28;4992083;28;20050;-78
2022/07/19 01:51:06;;;;;;;11.43;5.80;;;;;;;20.75;67.98;101086.38;4992164;28;20058;-79
2022/07/19 01:53:33;;;;;;;11.30;5.68;;;;;;;20.78;68.05;101085.94;4992606;28;20077;-78
2022/07/19 01:56:04;;;;;;;12.98;5.78;;;;;;;20.72;68.19;101084.13;4992505;28;20129;-78
2022/07/19 01:58:31;;;;;;;9.88;5.88;;;;;;;20.66;68.46;101084.97;4991665;28;20097;-78
2022/07/19 02:00:57;;;;;;;9.35;5.65;;;;;;;20.46;69.43;101084.22;4991855;28;20038;-78
2022/07/19 02:03:24;;;;;;;9.82;5.78;;;;;;;20.36;69.76;101087.28;4995654;28;20081;-77
2022/07/19 02:05:51;;;;;;;7.18;5.60;;;;;;;20.26;70.01;101083.44;4995132;28;20054;-77
2022/07/19 02:08:18;;;;;;;8.10;5.40;;;;;;;20.32;69.58;101083.41;4994722;28;20132;-77
2022/07/19 02:10:44;;;;;;;8.63;5.40;;;;;;;20.34;69.15;101081.38;4994673;28;20125;-77
2022/07/19 02:13:12;;;;;;;10.73;5.78;;;;;;;20.20;69.69;101085.91;4994712;28;20090;-78
2022/07/19 02:15:39;;;;;;;9.63;5.20;;;;;;;20.13;69.98;101085.13;4996152;28;20137;-77
2022/07/19 02:18:05;;;;;;;10.85;5.57;;;;;;;20.13;69.72;101084.28;4995166;28;20093;-78
2022/07/19 02:20:32;;;;;;;11.07;5.40;;;;;;;20.13;69.56;101089.59;4995227;28;20129;-78
2022/07/19 02:22:59;;;;;;;10.25;5.45;;;;;;;20.16;69.18;101082.03;4995469;28;20113;-77
2022/07/19 02:25:26;;;;;;;10.10;5.68;;;;;;;20.19;69.02;101078.97;4994170;28;20108;-77
2022/07/19 02:27:53;;;;;;;10.55;5.40;;;;;;;20.17;68.85;101078.38;4994421;28;20129;-77
2022/07/19 02:30:21;;;;;;;10.52;5.78;;;;;;;20.20;68.94;101080.59;4996120;28;20506;-78
2022/07/19 02:32:48;;;;;;;6.30;5.20;;;;;;;20.18;68.98;101077.34;4996404;28;20141;-77
2022/07/19 02:35:15;;;;;;;7.40;5.15;;;;;;;20.19;68.72;101075.50;4995012;28;20440;-78
2022/07/19 02:37:42;;;;;;;17.90;5.68;;;;;;;20.17;69.08;101075.72;4994444;28;20556;-78
2022/07/19 02:40:09;;;;;;;10.88;5.35;;;;;;;20.17;69.04;101088.16;4994196;28;20130;-79
2022/07/19 02:42:36;;;;;;;10.40;5.53;;;;;;;20.10;69.14;101084.72;4994183;28;20076;-78
2022/07/19 02:45:04;;;;;;;13.23;5.65;;;;;;;20.05;69.55;101087.16;4995151;28;20137;-78
2022/07/19 02:47:32;;;;;;;9.27;5.63;;;;;;;20.04;69.45;101081.03;4994444;28;20090;-78
2022/07/19 02:49:58;;;;;;;11.75;6.00;;;;;;;20.06;69.43;101080.81;4994428;28;20050;-78
2022/07/19 02:52:25;;;;;;;6.68;5.15;;;;;;;19.98;69.64;101086.34;4994554;28;20053;-77
2022/07/19 02:54:51;;;;;;;8.63;5.53;;;;;;;19.97;69.61;101095.34;4994114;28;20104;-78
2022/07/19 02:57:18;;;;;;;7.75;5.32;;;;;;;19.95;69.95;101084.13;4994478;28;20082;-78
2022/07/19 02:59:45;;;;;;;10.00;5.38;;;;;;;19.86;70.21;101088.81;4994146;28;20258;-79
2022/07/19 03:02:11;;;;;;;8.95;5.80;;;;;;;19.82;70.34;101083.13;4994656;28;20046;-78
2022/07/19 03:04:39;;;;;;;8.50;5.65;;;;;;;19.81;69.84;101092.13;4995180;28;20133;-78
2022/07/19 03:07:06;;;;;;;8.18;5.25;;;;;;;19.83;69.58;101086.59;4995173;28;20133;-78
2022/07/19 03:09:33;;;;;;;13.25;5.38;;;;;;;19.83;69.36;101090.06;4994456;28;20146;-79
2022/07/19 03:11:59;;;;;;;7.35;5.18;;;;;;;19.79;69.61;101088.03;4994985;28;20102;-77
2022/07/19 03:14:27;;;;;;;10.48;5.25;;;;;;;19.74;69.76;101082.50;4994273;28;20054;-77
2022/07/19 03:16:54;;;;;;;8.93;5.10;;;;;;;19.71;69.42;101081.09;4995181;28;20103;-78
2022/07/19 03:19:20;;;;;;;7.18;5.05;;;;;;;19.76;69.45;101083.13;4994823;28;20046;-79
2022/07/19 03:21:49;;;;;;;9.23;5.05;;;;;;;19.69;69.66;101082.31;4997166;28;20596;-79
2022/07/19 03:24:15;;;;;;;9.40;5.35;;;;;;;19.75;69.22;101086.81;4999242;28;20442;-79
2022/07/19 03:26:42;;;;;;;9.35;5.85;;;;;;;19.68;69.13;101091.28;4994597;28;20086;-77
2022/07/19 03:29:09;;;;;;;6.88;4.90;;;;;;;19.59;69.52;101087.19;4993418;28;20129;-78
2022/07/19 03:31:35;;;;;;;7.68;5.15;;;;;;;19.55;69.63;101087.59;4996015;28;20113;-78
2022/07/19 03:34:03;;;;;;;8.30;5.15;;;;;;;19.55;69.81;101090.25;4996613;28;20054;-78
2022/07/19 03:36:30;;;;;;;8.88;5.10;;;;;;;19.61;69.43;101090.47;4994996;28;20133;-78
2022/07/19 03:38:58;;;;;;;8.75;5.35;;;;;;;19.61;69.43;101091.28;4992614;28;20485;-78
2022/07/19 03:41:24;;;;;;;6.82;4.95;;;;;;;19.58;69.48;101091.69;4992819;28;20134;-78
2022/07/19 03:43:51;;;;;;;10.07;5.07;;;;;;;19.58;69.56;101093.53;4993516;28;20138;-78
2022/07/19 03:46:19;;;;;;;8.60;5.15;;;;;;;19.47;69.66;101084.31;4992969;28;20069;-78
2022/07/19 03:48:46;;;;;;;6.82;4.90;;;;;;;19.51;69.89;101091.69;4992973;28;20150;-78
2022/07/19 03:51:12;;;;;;;7.35;5.13;;;;;;;19.37;69.79;101090.03;4992962;28;20121;-77
2022/07/19 03:53:39;;;;;;;7.63;4.90;;;;;;;19.40;69.70;101089.59;4992464;28;20073;-77
2022/07/19 03:56:07;;;;;;;7.57;5.32;;;;;;;19.40;69.44;101092.25;4992607;28;20194;-77
2022/07/19 03:58:34;;;;;;;9.07;5.03;;;;;;;19.38;69.70;101085.50;4991973;28;20129;-77
2022/07/19 04:01:01;;;;;;;8.32;5.53;;;;;;;19.39;69.75;101084.50;4992280;28;20085;-77
2022/07/19 04:03:27;;;;;;;8.32;5.35;;;;;;;19.41;69.91;101079.81;4992317;28;20050;-77
2022/07/19 04:05:54;;;;;;;9.32;4.88;;;;;;;19.56;69.31;101083.13;4992494;28;20141;-78
2022/07/19 04:08:21;;;;;;;7.30;5.03;;;;;;;19.74;68.73;101085.16;4991933;28;20469;-76
2022/07/19 04:10:47;;;;;;;11.80;5.20;;;;;;;19.95;67.98;101084.94;4992396;28;20527;-77
2022/07/19 04:13:16;;;;;;;10.98;4.90;;;;;;;19.96;67.35;101086.56;4992104;28;20042;-78
2022/07/19 04:15:42;;;;;;;10.57;5.63;;;;;;;20.09;66.91;101077.75;4992331;28;20134;-77
2022/07/19 04:18:09;;;;;;;9.18;4.88;;;;;;;20.24;66.36;101059.75;4991528;28;20153;-78
2022/07/19 04:20:35;;;;;;;9.38;4.95;;;;;;;20.43;65.72;101058.88;4992723;28;20094;-78
2022/07/19 04:23:02;;;;;;;8.05;4.95;;;;;;;20.40;65.59;101063.78;4992761;28;20129;-77
2022/07/19 04:25:29;;;;;;;10.90;4.80;;;;;;;20.58;65.16;101063.13;4992380;28;20086;-78
2022/07/19 04:27:55;;;;;;;12.10;5.00;;;;;;;20.29;65.95;101075.88;4992562;28;20138;-77
2022/07/19 04:30:23;;;;;;;9.45;5.10;;;;;;;20.60;65.06;101072.53;4992468;28;20166;-78
2022/07/19 04:35:18;;;;;;;7.97;4.55;;;;;;;21.31;62.17;101064.34;5015485;28;20053;-79
2022/07/19 04:37:44;;;;;;;9.68;5.07;;;;;;;21.45;61.93;101067.72;5018984;28;20132;-79
2022/07/19 04:40:11;;;;;;;9.55;5.18;;;;;;;21.30;62.15;101070.69;5019675;28;20088;-82
2022/07/19 04:42:38;;;;;;;7.82;4.85;;;;;;;20.87;63.62;101071.34;5019578;28;20086;-82
2022/07/19 04:45:06;;;;;;;8.75;4.82;;;;;;;20.71;64.17;101077.19;5021544;28;20057;-82
2022/07/19 04:47:34;;;;;;;8.18;5.07;;;;;;;20.88;63.55;101064.19;5019690;28;20088;-84
2022/07/19 04:50:01;;;;;;;8.75;4.68;;;;;;;21.52;61.87;101063.19;5019951;28;20081;-82
2022/07/19 04:52:27;;;;;;;9.13;4.70;;;;;;;21.88;60.85;101059.78;5019566;28;20068;-84
2022/07/19 04:54:54;;;;;;;10.15;4.68;;;;;;;21.89;60.45;101069.38;5019413;28;20073;-81
2022/07/19 04:57:21;;;;;;;8.35;4.93;;;;;;;21.69;61.57;101066.94;5017728;28;20502;-81
2022/07/19 04:59:47;;;;;;;9.38;4.90;;;;;;;21.52;61.18;101069.31;5017217;28;20110;-84
2022/07/19 05:02:14;;;;;;;6.22;4.65;;;;;;;21.83;60.40;101054.28;5017631;28;20517;-83
2022/07/19 05:04:42;;;;;;;13.80;4.78;;;;;;;22.34;59.34;101058.47;5017916;28;20118;-83
2022/07/19 05:07:09;;;;;;;6.57;4.75;;;;;;;22.33;59.08;101057.66;5016973;28;20474;-83
2022/07/19 05:09:35;;;;;;;9.95;4.78;;;;;;;22.28;58.71;101056.72;5017177;28;20077;-81
2022/07/19 05:12:05;;;;;;;10.88;5.28;;;;;;;22.50;58.61;101057.88;5017651;28;20129;-81
2022/07/19 05:14:31;;;;;;;7.18;5.00;;;;;;;22.61;58.11;101045.66;5017343;28;20054;-82
2022/07/19 05:16:58;;;;;;;9.38;4.80;;;;;;;22.64;58.27;101046.03;5017718;28;20069;-82
2022/07/19 05:19:25;;;;;;;9.88;5.05;;;;;;;22.57;58.47;101061.28;5017610;28;20050;-80
2022/07/19 05:21:53;;;;;;;10.30;4.53;;;;;;;22.59;58.46;101058.41;5016229;28;20077;-80
2022/07/19 05:24:20;;;;;;;8.88;4.60;;;;;;;23.10;57.21;101050.72;5014657;28;20133;-80
2022/07/19 05:26:46;;;;;;;6.78;4.40;;;;;;;23.59;55.99;101047.94;5015925;28;20081;-80
2022/07/19 05:29:14;;;;;;;12.68;4.95;;;;;;;24.71;53.26;101046.56;5017327;28;20050;-80
2022/07/19 05:31:40;;;;;;;10.93;4.95;;;;;;;24.78;52.75;101047.25;5018326;28;20069;-80
2022/07/19 05:34:07;;;;;;;9.55;5.07;;;;;;;25.20;51.93;101049.59;5017720;28;20046;-80
2022/07/19 05:36:34;;;;;;;10.00;4.68;;;;;;;24.93;52.08;101038.69;5018479;28;20118;-80
2022/07/19 05:39:02;;;;;;;12.55;4.40;;;;;;;25.87;49.78;101046.91;5020311;28;20125;-81
2022/07/19 05:41:29;;;;;;;9.30;4.50;;;;;;;26.18;48.99;101055.34;5021071;28;20092;-81
2022/07/19 05:43:56;;;;;;;12.43;4.93;;;;;;;25.94;49.50;101047.56;5020961;28;20092;-81
2022/07/19 05:46:22;;;;;;;8.23;5.32;;;;;;;26.43;47.97;101047.66;5020762;28;20132;-81
2022/07/19 05:48:49;;;;;;;9.15;4.50;;;;;;;25.82;49.16;101049.50;5020496;28;20172;-81
2022/07/19 05:51:16;;;;;;;5.72;4.25;;;;;;;26.36;48.67;101055.06;5021557;28;20521;-80
2022/07/19 05:53:43;;;;;;;10.50;4.55;;;;;;;27.40;47.16;101055.59;5021046;28;20054;-80
2022/07/19 05:56:11;;;;;;;12.48;4.82;;;;;;;27.67;46.02;101060.09;5021929;28;20573;-81
2022/07/19 05:58:38;;;;;;;10.65;4.95;;;;;;;27.78;45.26;101064.47;5020297;28;20075;-81
2022/07/19 06:01:22;;;;;;;14.93;4.70;;;;;;;26.84;46.24;101056.13;5019497;28;20085;-80
2022/07/19 06:03:51;;;;;;;14.15;4.85;;;;;;;26.85;45.65;101058.56;5021169;28;20118;-79
2022/07/19 06:06:18;;;;;;;21.00;5.22;;;;;;;26.77;45.88;101056.34;5021006;28;20049;-81
2022/07/19 06:08:45;;;;;;;10.35;4.70;;;;;;;27.11;44.98;101062.31;5019511;28;20069;-81
2022/07/19 06:11:14;;;;;;;21.92;4.93;;;;;;;27.36;44.62;101054.47;5013094;28;20489;-79
2022/07/19 06:13:41;;;;;;;25.10;5.32;;;;;;;27.14;44.31;101048.38;5017454;28;20046;-80
2022/07/19 06:16:08;;;;;;;16.25;4.80;;;;;;;27.79;43.96;101065.28;5017611;28;20072;-82
2022/07/19 06:18:36;;;;;;;20.17;5.93;;;;;;;27.68;43.49;101056.34;5017683;28;20080;-80
2022/07/19 06:21:04;;;;;;;11.07;4.88;;;;;;;28.21;42.35;101059.84;5018051;28;20050;-79
2022/07/19 06:23:30;;;;;;;12.00;4.80;;;;;;;28.14;42.41;101067.34;5018896;28;20069;-79
2022/07/19 06:25:57;;;;;;;15.15;4.97;;;;;;;28.97;41.14;101049.31;5022570;28;20054;-76
2022/07/19 06:28:26;;;;;;;9.75;4.50;;;;;;;28.30;42.01;101066.38;5022499;28;20057;-81
2022/07/19 06:30:53;;;;;;;49.80;6.35;;;;;;;28.63;42.03;101063.25;5018760;28;20458;-81
2022/07/19 06:33:20;;;;;;;10.77;4.65;;;;;;;28.26;42.31;101065.28;5021015;28;20081;-82
2022/07/19 06:35:47;;;;;;;11.75;4.65;;;;;;;28.27;42.54;101059.66;5017589;28;20033;-81
2022/07/19 06:38:14;;;;;;;10.65;4.13;;;;;;;30.06;40.60;101065.97;5016705;28;20056;-81
2022/07/19 06:40:41;;;;;;;12.93;4.40;;;;;;;30.15;39.60;101064.31;5018449;28;20084;-81
2022/07/19 06:43:07;;;;;;;6.65;4.13;;;;;;;29.28;40.66;101059.06;5018716;28;20084;-81
2022/07/19 06:45:36;;;;;;;11.23;4.25;;;;;;;28.79;41.33;101057.91;5018419;28;20514;-81
2022/07/19 06:48:03;;;;;;;10.85;4.47;;;;;;;29.00;41.03;101063.06;5017037;28;20431;-80
2022/07/19 06:50:29;;;;;;;11.63;4.85;;;;;;;28.17;41.72;101067.63;5017878;28;20069;-80
2022/07/19 06:52:56;;;;;;;12.48;4.38;;;;;;;28.49;41.55;101069.41;5018024;28;20074;-82
2022/07/19 06:55:24;;;;;;;14.45;4.47;;;;;;;29.03;41.18;101065.22;5017369;28;20114;-79
2022/07/19 06:57:51;;;;;;;17.50;5.05;;;;;;;29.55;40.30;101072.25;5016701;28;20140;-79
2022/07/19 07:00:18;;;;;;;11.32;4.22;;;;;;;29.50;40.24;101074.16;5016901;28;20132;-79
2022/07/19 07:02:46;;;;;;;6.93;4.90;;;;;;;29.67;40.02;101074.69;5015629;28;20442;-80
2022/07/19 07:05:13;;;;;;;12.50;4.40;;;;;;;30.18;39.70;101075.38;5015601;28;20077;-80
2022/07/19 07:07:41;;;;;;;10.30;4.22;;;;;;;30.02;39.09;101073.81;5015531;28;20049;-79
2022/07/19 07:10:09;;;;;;;8.07;4.50;;;;;;;29.44;40.00;101069.84;5015915;28;20080;-79
2022/07/19 07:12:36;;;;;;;9.45;4.57;;;;;;;29.68;39.35;101070.91;5015317;28;20042;-80
2022/07/19 07:15:02;;;;;;;7.75;4.38;;;;;;;30.64;37.64;101073.28;5015737;28;20070;-80
2022/07/19 07:17:29;;;;;;;8.20;4.65;;;;;;;29.86;38.63;101070.31;5015828;28;20046;-79
2022/07/19 07:19:57;;;;;;;14.18;5.03;;;;;;;30.25;38.50;101075.06;5014942;28;20116;-80
2022/07/19 07:22:24;;;;;;;12.32;4.40;;;;;;;30.11;38.06;101071.34;5013175;28;20140;-79
2022/07/19 07:24:50;;;;;;;7.95;4.45;;;;;;;30.60;37.70;101068.72;5012962;28;20220;-78
2022/07/19 07:27:17;;;;;;;8.20;4.38;;;;;;;30.10;37.92;101062.44;5013148;28;20054;-79
2022/07/19 07:29:43;;;;;;;12.38;4.40;;;;;;;29.92;38.63;101065.69;5012748;28;20054;-79
2022/07/19 07:32:10;;;;;;;10.57;4.63;;;;;;;30.44;37.92;101065.25;5016577;28;20463;-80
2022/07/19 07:34:37;;;;;;;11.57;4.30;;;;;;;30.44;37.50;101057.16;5014882;28;20057;-79
2022/07/19 07:37:05;;;;;;;7.95;4.60;;;;;;;30.61;37.25;101054.13;5013505;28;20153;-80
2022/07/19 07:39:31;;;;;;;7.88;4.28;;;;;;;30.56;37.08;101067.63;5015272;28;20100;-80
2022/07/19 07:41:58;;;;;;;9.20;4.63;;;;;;;31.18;36.05;101058.88;5015519;28;20085;-79
2022/07/19 07:44:25;;;;;;;9.15;3.72;;;;;;;32.06;36.00;101065.06;5031989;28;20085;-79
2022/07/19 07:46:51;;;;;;;13.23;4.90;;;;;;;31.68;35.26;101060.31;5022676;28;20060;-80
2022/07/19 07:49:18;;;;;;;9.32;4.30;;;;;;;31.81;35.80;101056.13;5016573;28;20085;-80
2022/07/19 07:51:45;;;;;;;10.23;4.45;;;;;;;32.12;34.92;101055.78;5014759;28;20045;-80
2022/07/19 07:54:13;;;;;;;14.10;4.20;;;;;;;31.58;35.79;101054.19;5015712;28;20101;-79
2022/07/19 07:56:39;;;;;;;8.68;5.22;;;;;;;32.07;35.28;101056.66;5015649;28;20124;-79
2022/07/19 07:59:06;;;;;;;10.43;4.63;;;;;;;33.00;34.02;101062.44;5013743;28;20053;-79
2022/07/19 08:01:34;;;;;;;8.48;4.38;;;;;;;32.62;33.86;101057.81;5009994;28;20402;-80
2022/07/19 08:04:01;;;;;;;9.52;4.60;;;;;;;31.71;34.81;101047.31;5013666;28;20509;-77
2022/07/19 08:06:27;;;;;;;9.50;4.30;;;;;;;32.18;34.49;101052.69;5014667;28;20461;-80
2022/07/19 08:08:54;;;;;;;9.38;4.65;;;;;;;32.47;33.85;101058.06;5015770;28;20077;-81
2022/07/19 08:11:22;;;;;;;10.40;4.45;;;;;;;32.48;34.49;101048.84;5015637;28;20093;-80
2022/07/19 08:13:49;;;;;;;9.63;4.20;;;;;;;33.59;33.13;101037.28;5016014;28;20416;-81
2022/07/19 08:16:16;;;;;;;9.13;4.50;;;;;;;34.05;32.27;101039.13;5018171;28;20073;-81
2022/07/19 08:18:43;;;;;;;10.40;4.50;;;;;;;33.10;33.44;101035.16;5020699;28;20124;-81
2022/07/19 08:21:10;;;;;;;10.45;4.45;;;;;;;32.86;33.32;101038.00;5021039;28;20053;-80
2022/07/19 08:23:37;;;;;;;8.55;4.13;;;;;;;33.25;32.99;101034.91;5018482;28;20053;-81
2022/07/19 08:26:06;;;;;;;14.48;5.07;;;;;;;33.38;33.69;101028.72;5018530;28;20490;-80
2022/07/19 08:28:34;;;;;;;7.15;4.18;;;;;;;34.21;32.32;101033.06;5004402;28;20104;-79
2022/07/19 08:31:01;;;;;;;10.38;4.90;;;;;;;34.20;32.42;101036.09;5015653;28;20132;-80
2022/07/19 08:33:28;;;;;;;8.32;4.30;;;;;;;33.22;32.48;101030.88;5016579;28;20124;-78
2022/07/19 08:35:54;;;;;;;13.10;4.43;;;;;;;33.62;32.29;101031.25;5016087;28;20088;-80
2022/07/19 08:38:21;;;;;;;6.90;4.20;;;;;;;33.74;32.13;101033.47;5015582;28;20061;-80
2022/07/19 08:40:51;;;;;;;8.65;4.50;;;;;;;33.69;32.00;101041.72;5018063;28;20073;-80
2022/07/19 08:43:20;;;;;;;9.50;4.43;;;;;;;34.61;31.76;101047.69;5015194;28;20128;-80
2022/07/19 08:45:49;;;;;;;11.80;4.30;;;;;;;34.04;31.69;101037.50;5014708;28;20050;-80
2022/07/19 08:48:17;;;;;;;9.40;4.40;;;;;;;34.28;30.96;101043.53;5016239;28;20077;-80
2022/07/19 08:50:46;;;;;;;10.90;4.47;;;;;;;34.46;30.95;101047.25;5016103;28;20045;-81
2022/07/19 08:53:12;;;;;;;9.50;4.15;;;;;;;34.18;31.16;101038.31;5020949;28;20128;-80
2022/07/19 08:55:39;;;;;;;9.30;4.40;;;;;;;33.92;31.33;101047.00;5014340;28;20144;-79
2022/07/19 08:58:06;;;;;;;9.23;4.78;;;;;;;33.98;31.23;101039.56;5015731;28;20084;-80
2022/07/19 09:00:34;;;;;;;9.57;4.38;;;;;;;34.13;31.02;101035.69;5018556;28;20049;-80
2022/07/19 09:03:03;;;;;;;10.25;4.28;;;;;;;34.41;31.05;101044.66;5015597;28;20073;-80
2022/07/19 09:05:33;;;;;;;11.10;4.18;;;;;;;33.46;31.44;101033.47;5015542;28;20086;-80
2022/07/19 09:08:07;;;;;;;5.85;4.50;;;;;;;33.53;31.11;101033.09;5014337;28;20053;-79
2022/07/19 09:10:36;;;;;;;9.55;4.40;;;;;;;33.49;31.20;101041.03;4998708;28;20045;-79
2022/07/19 09:13:06;;;;;;;7.20;4.45;;;;;;;33.76;31.30;101037.50;5017671;28;20050;-79
2022/07/19 09:15:46;;;;;;;5.93;4.28;;;;;;;33.83;31.05;101034.41;5017200;28;20057;-80
2022/07/19 09:18:17;;;;;;;8.77;4.10;;;;;;;34.48;30.21;101034.97;5018427;28;20050;-79
2022/07/19 09:20:45;;;;;;;10.65;4.45;;;;;;;34.39;30.58;101038.72;5013298;28;20142;-79
2022/07/19 09:23:12;;;;;;;8.68;4.30;;;;;;;34.41;30.01;101036.50;5011787;28;20077;-79
2022/07/19 09:25:40;;;;;;;12.07;4.80;;;;;;;35.45;30.14;101046.19;5015805;28;20076;-78
2022/07/19 09:28:08;;;;;;;14.13;4.80;;;;;;;35.12;30.25;101034.81;5010972;28;20078;-80
2022/07/19 09:30:39;;;;;;;17.15;4.85;;;;;;;34.75;29.88;101028.63;5013158;28;20097;-80
2022/07/19 09:33:10;;;;;;;11.53;5.23;;;;;;;34.66;30.01;101037.81;5011434;28;20072;-80
2022/07/19 09:35:42;;;;;;;7.85;4.22;;;;;;;35.25;29.70;101029.28;5012430;28;20081;-79
2022/07/19 09:38:25;;;;;;;;;;;;;;;34.60;30.00;101028.97;5010291;28;20526;-79
2022/07/19 09:40:53;;;;;;;11.00;4.65;;;;;;;34.20;30.10;101022.50;5008054;28;20017;-80
2022/07/19 09:43:22;;;;;;;13.00;4.63;;;;;;;35.06;29.18;101030.59;5010060;28;20441;-79
2022/07/19 09:45:50;;;;;;;10.40;4.32;;;;;;;35.60;28.24;101034.91;5006823;28;20058;-79
2022/07/19 09:48:17;;;;;;;11.38;4.18;;;;;;;35.46;28.47;101036.91;5005275;28;20050;-79
2022/07/19 09:50:48;;;;;;;9.43;4.57;;;;;;;35.27;29.03;101023.53;5008297;28;20054;-80
2022/07/19 09:53:15;;;;;;;13.70;4.45;;;;;;;35.17;29.17;101027.31;5008144;28;20525;-79
2022/07/19 09:55:43;;;;;;;7.25;4.35;;;;;;;35.71;29.05;101019.09;5006285;28;20107;-80
2022/07/19 09:58:10;;;;;;;10.93;4.60;;;;;;;36.56;27.81;101048.47;5006529;28;20081;-79
2022/07/19 10:00:38;;;;;;;11.10;5.18;;;;;;;35.25;27.97;101020.31;5010051;28;20056;-79
2022/07/19 10:03:07;;;;;;;12.77;4.80;;;;;;;35.77;28.28;101013.19;5006702;28;20192;-79
2022/07/19 10:05:33;;;;;;;7.82;4.38;;;;;;;35.36;28.68;101012.72;5006211;28;20050;-79
2022/07/19 10:08:02;;;;;;;9.98;4.80;;;;;;;35.42;28.42;101011.47;5007011;28;20124;-79
2022/07/19 10:10:31;;;;;;;10.18;4.70;;;;;;;35.56;27.99;101020.31;5013061;28;20081;-79
2022/07/19 10:12:58;;;;;;;11.10;4.60;;;;;;;35.34;28.52;101014.97;5011758;28;20046;-78
2022/07/19 10:15:26;;;;;;;10.95;4.63;;;;;;;35.11;28.21;101006.00;5008276;28;20053;-78
2022/07/19 10:18:08;;;;;;;7.82;4.50;;;;;;;35.23;27.92;101004.31;5011095;28;21118;-78
2022/07/19 10:20:35;;;;;;;7.75;4.38;;;;;;;35.22;28.30;100997.25;5011644;28;20054;-78
2022/07/19 10:23:05;;;;;;;9.90;4.32;;;;;;;35.04;27.27;101005.63;5010920;28;20149;-79
2022/07/19 10:25:43;;;;;;;9.63;4.50;;;;;;;35.29;26.76;100996.81;5015561;28;20490;-79
2022/07/19 10:28:30;;;;;;;8.15;4.35;;;;;;;35.47;27.11;100987.63;5017341;28;20384;-79
2022/07/19 10:30:57;;;;;;;11.68;4.47;;;;;;;35.93;26.05;101005.41;5007140;28;20106;-79
2022/07/19 10:35:56;;;;;;;5.63;3.97;;;;;;;36.40;24.21;101002.91;4999796;28;20046;-82
2022/07/19 10:38:24;;;;;;;12.05;4.43;;;;;;;36.78;24.81;101000.38;4998943;28;20081;-81
2022/07/19 10:40:56;;;;;;;9.38;4.30;;;;;;;36.93;24.41;101005.31;5001721;28;20100;-84
2022/07/19 10:43:23;;;;;;;;;;;;;;;37.28;24.07;100992.41;5003302;28;20523;-83
2022/07/19 10:46:11;;;;;;;8.38;4.63;;;;;;;37.22;23.62;100996.44;5002532;28;19964;-84
2022/07/19 10:48:40;;;;;;;6.78;4.03;;;;;;;36.99;23.92;100993.09;4986628;28;20046;-83
2022/07/19 10:51:07;;;;;;;8.43;3.90;;;;;;;37.36;24.11;100974.38;5002844;28;20496;-85
2022/07/19 10:54:03;;;;;;;9.25;4.30;;;;;;;36.31;24.12;100992.03;5002020;28;20085;-84
2022/07/19 10:56:35;;;;;;;7.43;3.75;;;;;;;36.67;24.99;100974.53;5003830;28;20073;-82
2022/07/19 10:59:05;;;;;;;6.60;4.10;;;;;;;36.24;23.86;100978.06;5002900;28;20458;-84
2022/07/19 11:01:33;;;;;;;8.30;4.05;;;;;;;36.56;23.63;100979.50;5002569;28;20408;-81
2022/07/19 11:04:28;;;;;;;7.53;3.90;;;;;;;35.77;23.24;100975.09;5003710;28;20046;-84
2022/07/19 11:07:10;;;;;;;8.73;4.10;;;;;;;36.29;23.53;100972.50;4988716;28;20133;-84
2022/07/19 11:09:44;;;;;;;5.93;3.15;;;;;;;35.78;22.84;100967.72;4981967;28;20082;-82
2022/07/19 11:12:35;;;;;;;10.23;4.47;;;;;;;36.03;23.42;100953.34;5001101;28;20061;-85
2022/07/19 11:15:05;;;;;;;11.52;4.13;;;;;;;35.93;22.95;100961.84;4998773;28;20061;-84
2022/07/19 11:17:32;;;;;;;8.65;3.92;;;;;;;36.11;23.01;100954.50;5004152;28;20074;-84
2022/07/19 11:20:01;;;;;;;9.77;3.90;;;;;;;36.42;23.81;100957.88;5002704;28;20085;-84
2022/07/19 11:22:32;;;;;;;9.43;3.90;;;;;;;36.10;23.56;100955.59;4996630;28;20046;-84
2022/07/19 11:25:00;;;;;;;;;;;;;;;36.34;23.25;100955.19;5001382;28;20046;-85
2022/07/19 11:27:28;;;;;;;7.32;3.90;;;;;;;35.88;24.11;100938.31;5000334;28;20348;-84
2022/07/19 11:29:54;;;;;;;10.38;4.38;;;;;;;36.06;23.58;100938.31;4997563;28;20074;-84